createdAt,value
2024-03-13T00:00:44.156Z,4.76
2024-03-13T00:03:11.081Z,4.80
2024-03-13T00:05:38.066Z,4.75
2024-03-13T00:08:07.042Z,4.82
2024-03-13T00:10:33.857Z,4.84
2024-03-13T00:13:00.734Z,4.79
2024-03-13T00:15:27.529Z,4.72
2024-03-13T00:17:54.481Z,4.68
2024-03-13T00:20:21.616Z,4.64
2024-03-13T00:22:49.449Z,4.63
2024-03-13T00:25:16.675Z,4.58
2024-03-13T00:27:47.208Z,4.57
2024-03-13T00:30:14.779Z,4.53
2024-03-13T00:32:42.500Z,4.51
2024-03-13T00:35:09.813Z,4.54
2024-03-13T00:37:36.538Z,4.52
2024-03-13T00:40:05.192Z,4.45
2024-03-13T00:42:32.119Z,4.40
2024-03-13T00:44:59.089Z,4.37
2024-03-13T00:47:25.892Z,4.29
2024-03-13T00:49:55.607Z,4.28
2024-03-13T00:52:23.631Z,4.31
2024-03-13T00:54:52.258Z,4.34
2024-03-13T00:57:20.304Z,4.37
2024-03-13T00:59:47.858Z,4.39
2024-03-13T01:02:14.977Z,4.36
2024-03-13T01:04:44.422Z,4.34
2024-03-13T01:07:11.649Z,4.34
2024-03-13T01:09:39.900Z,4.24
2024-03-13T01:12:08.242Z,4.19
2024-03-13T01:14:35.436Z,4.25
2024-03-13T01:17:04.325Z,4.20
2024-03-13T01:19:35.745Z,4.30
2024-03-13T01:22:14.453Z,4.27
2024-03-13T01:24:44.185Z,4.28
2024-03-13T01:27:11.861Z,4.31
2024-03-13T01:29:41.539Z,4.33
2024-03-13T01:32:09.172Z,4.35
2024-03-13T01:34:35.969Z,4.35
2024-03-13T01:37:21.247Z,4.39
2024-03-13T01:39:49.255Z,4.37
2024-03-13T01:42:34.644Z,4.32
2024-03-13T01:45:25.867Z,4.31
2024-03-13T01:48:12.225Z,4.32
2024-03-13T01:50:59.546Z,4.22
2024-03-13T01:53:45.434Z,4.19
2024-03-13T01:56:22.957Z,4.17
2024-03-13T01:59:04.638Z,4.16
2024-03-13T02:01:50.553Z,4.11
2024-03-13T02:04:18.075Z,4.00
2024-03-13T02:06:47.348Z,3.85
2024-03-13T02:09:14.903Z,3.87
2024-03-13T02:11:43.051Z,3.78
2024-03-13T02:14:09.988Z,3.68
2024-03-13T02:16:36.798Z,3.64
2024-03-13T02:19:04.144Z,3.54
2024-03-13T02:21:34.316Z,3.49
2024-03-13T02:24:01.254Z,3.46
2024-03-13T02:26:28.176Z,3.44
2024-03-13T02:28:54.966Z,3.41
2024-03-13T02:31:21.901Z,3.43
2024-03-13T02:33:48.783Z,3.44
2024-03-13T02:36:16.092Z,3.48
2024-03-13T02:38:43.010Z,3.43
2024-03-13T02:41:09.815Z,3.40
2024-03-13T02:43:39.660Z,3.41
2024-03-13T02:46:06.411Z,3.36
2024-03-13T02:48:33.200Z,3.25
2024-03-13T02:50:59.949Z,3.04
2024-03-13T02:53:27.213Z,3.04
2024-03-13T02:55:55.333Z,3.05
2024-03-13T02:58:23.355Z,3.08
2024-03-13T03:00:50.432Z,3.05
2024-03-13T03:03:18.018Z,3.05
2024-03-13T03:05:47.154Z,2.99
2024-03-13T03:08:16.297Z,2.98
2024-03-13T03:10:43.163Z,2.98
2024-03-13T03:13:11.752Z,2.96
2024-03-13T03:15:40.485Z,3.02
2024-03-13T03:18:07.955Z,2.98
2024-03-13T03:20:34.818Z,2.90
2024-03-13T03:23:01.693Z,2.90
2024-03-13T03:25:30.554Z,2.92
2024-03-13T03:28:00.616Z,2.97
2024-03-13T03:30:27.498Z,2.83
2024-03-13T03:32:55.112Z,2.73
2024-03-13T03:35:21.899Z,2.65
2024-03-13T03:37:48.754Z,2.60
2024-03-13T03:40:17.448Z,2.57
2024-03-13T03:42:44.361Z,2.62
2024-03-13T03:45:13.127Z,2.72
2024-03-13T03:47:40.931Z,2.80
2024-03-13T03:50:08.477Z,2.83
2024-03-13T03:52:35.877Z,2.71
2024-03-13T03:55:04.376Z,2.66
2024-03-13T03:57:31.204Z,2.64
2024-03-13T03:59:57.995Z,2.68
2024-03-13T04:02:24.713Z,2.65
2024-03-13T04:04:51.463Z,2.77
2024-03-13T04:07:18.167Z,2.83
2024-03-13T04:09:44.945Z,2.83
2024-03-13T04:12:11.785Z,2.86
2024-03-13T04:14:38.578Z,2.91
2024-03-13T04:17:05.341Z,2.89
2024-03-13T04:19:32.323Z,2.91
2024-03-13T04:22:00.133Z,2.92
2024-03-13T04:24:27.039Z,2.91
2024-03-13T04:26:53.871Z,2.90
2024-03-13T04:29:24.680Z,2.85
2024-03-13T04:31:53.522Z,2.79
2024-03-13T04:34:20.285Z,2.87
2024-03-13T04:36:48.469Z,2.93
2024-03-13T04:39:17.099Z,2.90
2024-03-13T04:41:43.980Z,2.92
2024-03-13T04:44:11.113Z,2.95
2024-03-13T04:46:39.884Z,2.97
2024-03-13T04:49:06.815Z,2.90
2024-03-13T04:51:33.720Z,2.89
2024-03-13T04:54:00.430Z,2.85
2024-03-13T04:56:27.207Z,2.82
2024-03-13T04:58:53.951Z,2.83
2024-03-13T05:01:20.891Z,2.81
2024-03-13T05:03:48.085Z,2.93
2024-03-13T05:06:15.098Z,2.89
2024-03-13T05:08:42.101Z,2.86
2024-03-13T05:11:10.589Z,2.87
2024-03-13T05:13:37.688Z,2.85
2024-03-13T05:16:05.493Z,2.86
2024-03-13T05:18:32.260Z,2.86
2024-03-13T05:21:00.086Z,2.92
2024-03-13T05:23:26.842Z,2.91
2024-03-13T05:25:53.739Z,2.88
2024-03-13T05:28:22.922Z,2.88
2024-03-13T05:30:49.922Z,2.86
2024-03-13T05:33:16.686Z,2.81
2024-03-13T05:35:43.722Z,2.82
2024-03-13T05:38:12.048Z,2.81
2024-03-13T05:40:39.000Z,2.88
2024-03-13T05:43:05.923Z,2.94
2024-03-13T05:45:35.822Z,2.95
2024-03-13T05:48:03.467Z,2.94
2024-03-13T05:50:30.322Z,2.94
2024-03-13T05:52:57.092Z,2.94
2024-03-13T05:55:25.616Z,2.93
2024-03-13T05:57:52.615Z,2.96
2024-03-13T06:00:20.961Z,2.99
2024-03-13T06:02:47.918Z,3.02
2024-03-13T06:05:16.149Z,3.02
2024-03-13T06:07:43.164Z,2.93
2024-03-13T06:10:13.027Z,2.90
2024-03-13T06:12:40.091Z,2.95
2024-03-13T06:15:13.960Z,2.98
2024-03-13T06:17:41.702Z,3.00
2024-03-13T06:20:15.106Z,3.05
2024-03-13T06:22:42.539Z,3.12
2024-03-13T06:25:10.085Z,3.19
2024-03-13T06:27:37.627Z,3.22
2024-03-13T06:30:04.911Z,3.27
2024-03-13T06:32:31.918Z,3.30
2024-03-13T06:34:59.289Z,3.40
2024-03-13T06:37:26.555Z,3.45
2024-03-13T06:39:54.793Z,3.49
2024-03-13T06:42:21.835Z,3.58
2024-03-13T06:44:53.781Z,3.55
2024-03-13T06:47:21.911Z,3.63
2024-03-13T06:49:48.788Z,3.68
2024-03-13T06:52:15.836Z,3.67
2024-03-13T06:54:43.511Z,3.71
2024-03-13T06:57:16.194Z,3.72
2024-03-13T06:59:46.319Z,3.76
2024-03-13T07:02:15.293Z,3.91
2024-03-13T07:04:43.683Z,4.02
2024-03-13T07:07:11.927Z,4.05
2024-03-13T07:09:38.784Z,3.99
2024-03-13T07:12:05.982Z,4.14
2024-03-13T07:14:32.808Z,4.19
2024-03-13T07:17:00.018Z,4.15
2024-03-13T07:19:26.882Z,4.17
2024-03-13T07:21:54.127Z,4.30
2024-03-13T07:24:21.149Z,4.42
2024-03-13T07:26:47.926Z,4.50
2024-03-13T07:29:14.637Z,4.56
2024-03-13T07:31:41.552Z,4.59
2024-03-13T07:34:11.806Z,4.62
2024-03-13T07:36:39.863Z,4.61
2024-03-13T07:39:12.454Z,4.70
2024-03-13T07:41:41.236Z,4.66
2024-03-13T07:44:09.034Z,4.77
2024-03-13T07:46:36.441Z,4.82
2024-03-13T07:49:04.124Z,4.88
2024-03-13T07:51:31.204Z,4.89
2024-03-13T07:53:58.145Z,4.99
2024-03-13T07:56:25.390Z,5.03
2024-03-13T07:58:52.671Z,5.16
2024-03-13T08:01:20.179Z,5.22
2024-03-13T08:03:47.251Z,5.32
2024-03-13T09:06:39.659Z,6.25
2024-03-13T09:09:07.345Z,6.26
2024-03-13T09:11:38.252Z,6.26
2024-03-13T09:14:06.641Z,6.30
2024-03-13T09:16:33.438Z,6.33
2024-03-13T09:19:00.789Z,6.44
2024-03-13T09:21:27.733Z,6.49
2024-03-13T09:23:54.681Z,6.59
2024-03-13T09:26:21.442Z,6.71
2024-03-13T09:28:48.259Z,6.81
2024-03-13T09:31:15.646Z,6.81
2024-03-13T09:33:42.609Z,6.83
2024-03-13T09:36:14.709Z,6.77
2024-03-13T09:38:45.678Z,6.71
2024-03-13T09:41:14.952Z,6.67
2024-03-13T09:43:42.091Z,6.72
2024-03-13T09:46:14.997Z,6.76
2024-03-13T09:48:44.382Z,6.87
2024-03-13T09:51:12.048Z,6.87
2024-03-13T09:53:42.774Z,6.95
2024-03-13T09:56:15.680Z,7.02
2024-03-13T09:58:46.374Z,7.02
2024-03-13T10:01:21.621Z,7.01
2024-03-13T10:03:58.812Z,7.05
2024-03-13T10:06:27.310Z,7.22
2024-03-13T10:08:57.907Z,7.32
2024-03-13T10:11:25.103Z,7.48
2024-03-13T10:13:53.486Z,7.56
2024-03-13T10:16:24.026Z,7.62
2024-03-13T10:18:52.712Z,7.59
2024-03-13T10:21:29.023Z,7.62
2024-03-13T10:24:00.691Z,7.63
2024-03-13T10:26:28.746Z,7.69
2024-03-13T10:28:56.094Z,7.68
2024-03-13T10:31:25.397Z,7.72
2024-03-13T10:33:56.125Z,7.76
2024-03-13T10:36:23.204Z,7.79
2024-03-13T10:38:50.420Z,7.97
2024-03-13T10:41:18.991Z,7.98
2024-03-13T10:43:47.842Z,8.01
2024-03-13T10:46:14.811Z,8.01
2024-03-13T10:48:43.436Z,8.04
2024-03-13T10:51:15.002Z,8.21
2024-03-13T10:53:44.438Z,8.09
2024-03-13T10:56:16.033Z,8.17
2024-03-13T10:58:47.893Z,8.21
2024-03-13T11:01:17.895Z,8.35
2024-03-13T11:03:45.274Z,8.35
2024-03-13T11:06:16.788Z,8.29
2024-03-13T11:08:44.015Z,8.29
2024-03-13T11:11:20.784Z,8.43
2024-03-13T11:13:55.862Z,8.44
2024-03-13T11:16:24.848Z,8.47
2024-03-13T11:18:52.556Z,8.54
2024-03-13T11:21:40.787Z,8.50
2024-03-13T11:24:09.134Z,8.46
2024-03-13T11:26:39.382Z,8.51
2024-03-13T11:29:10.235Z,8.57
2024-03-13T11:31:37.422Z,8.55
2024-03-13T11:34:04.310Z,8.69
2024-03-13T11:36:31.459Z,8.82
2024-03-13T11:38:59.079Z,8.77
2024-03-13T11:41:26.578Z,8.85
2024-03-13T11:43:54.797Z,8.91
2024-03-13T11:46:34.932Z,9.04
2024-03-13T11:49:03.715Z,9.10
2024-03-13T11:51:32.447Z,9.19
2024-03-13T11:54:09.000Z,9.24
2024-03-13T11:56:36.036Z,9.26
2024-03-13T11:59:02.809Z,9.22
2024-03-13T12:01:31.945Z,9.15
2024-03-13T12:03:59.589Z,9.12
2024-03-13T12:06:26.406Z,9.12
2024-03-13T12:08:57.044Z,9.08
2024-03-13T12:11:27.377Z,9.08
2024-03-13T12:13:55.646Z,9.10
2024-03-13T12:16:22.591Z,9.10
2024-03-13T12:18:55.461Z,9.12
2024-03-13T12:21:27.232Z,9.15
2024-03-13T12:23:56.617Z,9.12
2024-03-13T12:26:25.804Z,9.10
2024-03-13T12:28:55.750Z,9.13
2024-03-13T12:31:22.626Z,9.17
2024-03-13T12:33:55.365Z,9.24
2024-03-13T12:36:22.424Z,9.22
2024-03-13T12:38:49.404Z,9.22
2024-03-13T12:41:16.651Z,9.24
2024-03-13T12:43:46.258Z,9.24
2024-03-13T12:46:17.321Z,9.34
2024-03-13T12:48:45.114Z,9.37
2024-03-13T12:51:12.479Z,9.40
2024-03-13T12:53:39.414Z,9.43
2024-03-13T12:56:12.016Z,9.45
2024-03-13T12:58:38.786Z,9.50
2024-03-13T13:01:06.580Z,9.55
2024-03-13T13:03:33.615Z,9.50
2024-03-13T13:06:01.534Z,9.51
2024-03-13T13:08:29.869Z,9.48
2024-03-13T13:10:58.271Z,9.55
2024-03-13T13:13:27.502Z,9.57
2024-03-13T13:15:54.423Z,9.55
2024-03-13T13:18:21.443Z,9.52
2024-03-13T13:20:48.312Z,9.46
2024-03-13T13:23:15.145Z,9.43
2024-03-13T13:25:42.090Z,9.42
2024-03-13T13:28:13.472Z,9.34
2024-03-13T13:30:45.557Z,9.30
2024-03-13T13:33:12.575Z,9.28
2024-03-13T13:35:43.997Z,9.24
2024-03-13T13:38:13.339Z,9.33
2024-03-13T13:40:40.512Z,9.36
2024-03-13T13:43:10.547Z,9.36
2024-03-13T13:45:37.944Z,9.27
2024-03-13T13:48:11.138Z,9.26
2024-03-13T13:50:38.409Z,9.20
2024-03-13T13:53:06.771Z,9.29
2024-03-13T13:55:33.511Z,9.33
2024-03-13T13:58:00.497Z,9.42
2024-03-13T14:00:27.789Z,9.49
2024-03-13T14:02:55.938Z,9.55
2024-03-13T14:05:23.664Z,9.59
2024-03-13T14:07:53.041Z,9.58
2024-03-13T14:10:20.348Z,9.60
2024-03-13T14:12:49.308Z,9.60
2024-03-13T14:15:20.068Z,9.54
2024-03-13T14:17:48.069Z,9.58
2024-03-13T14:20:20.220Z,9.57
2024-03-13T14:22:50.129Z,9.56
2024-03-13T14:25:16.880Z,9.54
2024-03-13T14:27:43.854Z,9.58
2024-03-13T14:30:11.067Z,9.61
2024-03-13T14:32:38.340Z,9.63
2024-03-13T14:35:08.560Z,9.72
2024-03-13T14:37:37.230Z,9.76
2024-03-13T14:40:05.192Z,9.66
2024-03-13T14:42:36.185Z,9.62
2024-03-13T14:45:08.102Z,9.62
2024-03-13T14:47:35.271Z,9.63
2024-03-13T14:50:02.238Z,9.64
2024-03-13T14:52:29.309Z,9.69
2024-03-13T14:54:56.100Z,9.65
2024-03-13T14:57:29.022Z,9.61
2024-03-13T15:00:00.833Z,9.59
2024-03-13T15:02:29.923Z,9.55
2024-03-13T15:04:56.808Z,9.50
2024-03-13T15:07:23.628Z,9.54
2024-03-13T15:09:50.737Z,9.50
2024-03-13T15:12:17.712Z,9.51
2024-03-13T15:14:45.303Z,9.51
2024-03-13T15:17:14.702Z,9.51
2024-03-13T15:19:44.677Z,9.46
2024-03-13T15:22:13.292Z,9.44
2024-03-13T15:24:40.574Z,9.41
2024-03-13T15:27:08.614Z,9.35
2024-03-13T15:29:35.897Z,9.38
2024-03-13T15:32:02.766Z,9.38
2024-03-13T15:34:32.072Z,9.30
2024-03-13T15:36:59.312Z,9.33
2024-03-13T15:39:28.244Z,9.30
2024-03-13T15:41:55.716Z,9.34
2024-03-13T15:44:23.310Z,9.31
2024-03-13T15:46:50.454Z,9.28
2024-03-13T15:49:17.539Z,9.29
2024-03-13T15:51:44.362Z,9.23
2024-03-13T15:54:12.421Z,9.17
2024-03-13T15:56:39.596Z,9.21
2024-03-13T15:59:06.481Z,9.17
2024-03-13T16:01:34.604Z,9.19
2024-03-13T16:04:01.739Z,9.26
2024-03-13T16:06:30.102Z,9.31
2024-03-13T16:09:01.833Z,9.35
2024-03-13T16:11:30.374Z,9.30
2024-03-13T16:13:58.361Z,9.30
2024-03-13T16:16:31.244Z,9.30
2024-03-13T16:18:58.560Z,9.29
2024-03-13T16:21:28.815Z,9.33
2024-03-13T16:23:56.188Z,9.31
2024-03-13T16:26:25.029Z,9.24
2024-03-13T16:28:55.520Z,9.21
2024-03-13T16:31:25.197Z,9.13
2024-03-13T16:33:53.804Z,9.13
2024-03-13T16:36:21.162Z,9.13
2024-03-13T16:38:48.337Z,9.16
2024-03-13T16:41:15.599Z,9.17
2024-03-13T16:43:42.515Z,9.19
2024-03-13T16:46:10.621Z,9.19
2024-03-13T16:48:38.250Z,9.15
2024-03-13T16:51:08.320Z,9.14
2024-03-13T16:53:35.371Z,9.06
2024-03-13T16:56:02.686Z,9.03
2024-03-13T16:58:30.551Z,8.98
2024-03-13T17:00:57.678Z,8.95
2024-03-13T17:03:24.642Z,8.93
2024-03-13T17:05:52.536Z,8.92
2024-03-13T17:08:19.461Z,8.91
2024-03-13T17:10:49.869Z,8.86
2024-03-13T17:13:17.455Z,8.81
2024-03-13T17:15:45.163Z,8.73
2024-03-13T17:18:12.475Z,8.69
2024-03-13T17:20:41.019Z,8.66
2024-03-13T17:23:09.150Z,8.59
2024-03-13T17:25:35.896Z,8.61
2024-03-13T17:28:03.399Z,8.55
2024-03-13T17:30:30.699Z,8.60
2024-03-13T17:32:57.631Z,8.57
2024-03-13T17:35:24.685Z,8.54
2024-03-13T17:37:52.403Z,8.50
2024-03-13T17:40:21.473Z,8.52
2024-03-13T17:42:48.530Z,8.49
2024-03-13T17:45:18.228Z,8.46
2024-03-13T17:47:45.829Z,8.45
2024-03-13T17:50:13.236Z,8.44
2024-03-13T17:52:40.264Z,8.45
2024-03-13T17:55:07.627Z,8.42
2024-03-13T17:57:34.927Z,8.44
2024-03-13T18:00:02.860Z,8.45
2024-03-13T18:02:36.313Z,8.45
2024-03-13T18:05:03.636Z,8.46
2024-03-13T18:07:30.516Z,8.46
2024-03-13T18:09:57.436Z,8.48
2024-03-13T18:12:24.782Z,8.47
2024-03-13T18:14:54.251Z,8.47
2024-03-13T18:17:23.310Z,8.46
2024-03-13T18:19:50.356Z,8.44
2024-03-13T18:22:19.602Z,8.47
2024-03-13T18:24:46.633Z,8.45
2024-03-13T18:27:13.653Z,8.45
2024-03-13T18:29:40.560Z,8.43
2024-03-13T18:32:07.390Z,8.44
2024-03-13T18:34:34.416Z,8.43
2024-03-13T18:37:01.356Z,8.42
2024-03-13T18:39:28.267Z,8.45
2024-03-13T18:41:55.583Z,8.45
2024-03-13T18:44:26.579Z,8.52
2024-03-13T18:46:53.383Z,8.54
2024-03-13T18:49:20.542Z,8.51
2024-03-13T18:51:48.621Z,8.48
2024-03-13T18:54:16.040Z,8.52
2024-03-13T18:56:43.229Z,8.50
2024-03-13T18:59:11.670Z,8.53
2024-03-13T19:01:38.999Z,8.59
2024-03-13T19:04:06.039Z,8.55
2024-03-13T19:06:34.454Z,8.52
2024-03-13T19:09:01.833Z,8.54
2024-03-13T19:11:28.807Z,8.55
2024-03-13T19:13:55.727Z,8.54
2024-03-13T19:16:22.530Z,8.48
2024-03-13T19:18:53.270Z,8.45
2024-03-13T19:21:20.937Z,8.47
2024-03-13T19:23:52.699Z,8.51
2024-03-13T19:26:19.900Z,8.50
2024-03-13T19:28:46.724Z,8.50
2024-03-13T19:31:18.104Z,8.50
2024-03-13T19:33:51.089Z,8.49
2024-03-13T19:36:20.814Z,8.43
2024-03-13T19:38:47.618Z,8.36
2024-03-13T19:41:14.434Z,8.27
2024-03-13T19:43:42.119Z,8.19
2024-03-13T19:46:09.717Z,8.14
2024-03-13T19:48:36.833Z,8.05
2024-03-13T19:51:04.398Z,8.04
2024-03-13T19:53:31.382Z,7.98
2024-03-13T19:55:58.762Z,7.97
2024-03-13T19:58:25.646Z,7.96
2024-03-13T20:00:52.441Z,7.92
2024-03-13T20:03:19.297Z,7.91
2024-03-13T20:05:46.681Z,7.89
2024-03-13T20:08:14.724Z,7.86
2024-03-13T20:10:41.554Z,7.86
2024-03-13T20:13:08.759Z,7.85
2024-03-13T20:15:35.884Z,7.82
2024-03-13T20:18:02.890Z,7.79
2024-03-13T20:20:32.202Z,7.76
2024-03-13T20:23:01.780Z,7.76
2024-03-13T20:25:30.360Z,7.74
2024-03-13T20:27:57.891Z,7.71
2024-03-13T20:30:24.728Z,7.68
2024-03-13T20:32:51.748Z,7.67
2024-03-13T20:35:19.127Z,7.62
2024-03-13T20:37:45.925Z,7.56
2024-03-13T20:40:15.635Z,7.54
2024-03-13T20:42:43.318Z,7.51
2024-03-13T20:45:10.605Z,7.49
2024-03-13T20:47:38.368Z,7.44
2024-03-13T20:50:08.159Z,7.41
2024-03-13T20:52:39.060Z,7.38
2024-03-13T20:55:09.573Z,7.40
2024-03-13T20:57:39.728Z,7.38
2024-03-13T21:00:18.749Z,7.38
2024-03-13T21:02:46.043Z,7.35
2024-03-13T21:05:12.950Z,7.37
2024-03-13T21:07:39.854Z,7.35
2024-03-13T21:10:08.011Z,7.31
2024-03-13T21:12:34.792Z,7.32
2024-03-13T21:15:01.626Z,7.28
2024-03-13T21:17:31.524Z,7.26
2024-03-13T21:19:58.400Z,7.24
2024-03-13T21:22:27.192Z,7.22
2024-03-13T21:24:54.716Z,7.20
2024-03-13T21:27:21.828Z,7.21
2024-03-13T21:29:48.595Z,7.23
2024-03-13T21:32:15.748Z,7.26
2024-03-13T21:34:42.561Z,7.25
2024-03-13T21:37:09.326Z,7.23
2024-03-13T21:39:36.180Z,7.24
2024-03-13T21:42:03.002Z,7.25
2024-03-13T21:44:30.721Z,7.28
2024-03-13T21:46:57.470Z,7.28
2024-03-13T21:49:24.266Z,7.28
2024-03-13T21:51:51.072Z,7.30
2024-03-13T21:54:17.909Z,7.26
2024-03-13T21:56:44.829Z,7.28
2024-03-13T21:59:11.634Z,7.26
2024-03-13T22:01:39.076Z,7.25
2024-03-13T22:04:07.607Z,7.22
2024-03-13T22:06:36.673Z,7.22
2024-03-13T22:09:04.796Z,7.18
2024-03-13T22:11:31.793Z,7.20
2024-03-13T22:13:58.675Z,7.17
2024-03-13T22:16:25.642Z,7.15
2024-03-13T22:18:52.473Z,7.17
2024-03-13T22:21:19.347Z,7.21
2024-03-13T22:23:46.673Z,7.21
2024-03-13T22:26:18.232Z,7.21
2024-03-13T22:28:45.352Z,7.25
2024-03-13T22:31:13.142Z,7.23
2024-03-13T22:33:40.057Z,7.27
2024-03-13T22:36:07.121Z,7.25
2024-03-13T22:38:33.921Z,7.26
2024-03-13T22:41:00.668Z,7.26
2024-03-13T22:43:27.469Z,7.22
2024-03-13T22:45:54.238Z,7.20
2024-03-13T22:48:21.123Z,7.21
2024-03-13T22:50:48.002Z,7.16
2024-03-13T22:53:14.823Z,7.13
2024-03-13T22:55:41.593Z,7.11
2024-03-13T22:58:09.955Z,7.09
2024-03-13T23:00:36.969Z,7.01
2024-03-13T23:03:04.352Z,7.02
2024-03-13T23:05:34.381Z,6.99
2024-03-13T23:08:01.436Z,6.99
2024-03-13T23:10:28.237Z,7.03
2024-03-13T23:12:54.983Z,6.99
2024-03-13T23:15:22.259Z,6.97
2024-03-13T23:17:51.390Z,6.94
2024-03-13T23:20:18.418Z,6.95
2024-03-13T23:22:45.503Z,6.95
2024-03-13T23:25:12.810Z,6.92
2024-03-13T23:27:39.876Z,6.89
2024-03-13T23:30:08.667Z,6.87
2024-03-13T23:32:36.069Z,6.89
2024-03-13T23:35:06.888Z,6.84
2024-03-13T23:37:35.491Z,6.86
2024-03-13T23:40:05.719Z,6.90
2024-03-13T23:42:45.186Z,6.93
2024-03-13T23:45:14.012Z,6.93
2024-03-13T23:47:42.047Z,6.88
2024-03-13T23:50:13.236Z,6.86
2024-03-13T23:52:41.019Z,6.92
2024-03-13T23:55:08.039Z,6.92
2024-03-13T23:57:35.159Z,6.95
